Monte Rio, CA (95462)

2:16 PM PDT on May 06, 2015 (GMT -0700)
Starrett Hill 3rd Level | | Change Station
CLOSE
Current Station
Personal Weather Station
Location: Monte Rio, CA
Elevation: 348 ft
Nearby Weather Stations

Elev 348 ft 38.47 °N, 123.01 °W | Updated 14 minutes ago

Clear
Clear
72.0 °F
Feels Like 77 °F
N
2.7
Wind Variable Wind from SW

Today
High -- | Low -- °F
--% Chance of Precip.
Yesterday
High -- | Low -- °F
Precip. -- in
6:09 AM 8:08 PM
Waning Gibbous, 92% visible
Pressure 29.78 in
Visibility 10.0 miles
Clouds Few 8000 ft
Heat Index 77 °F
Dew Point 48 °F
Humidity 42%
Rainfall 0.00 in
Snow Depth Not available.
UV 10 out of 12
Pollen 6.60 out of 12
Air Quality Not available.
Flu Activity Sporadic
METAR KSTS 062053Z 16008KT 10SM FEW080 24/09 A2980 RMK AO2 SLP085 T02390089 58018

More Conditions Fewer Conditions

Pressure 29.78 in
Visibility 10.0 miles
Clouds Few 8000 ft
Heat Index 77 °F
Dew Point 48 °F
Humidity 42%
Rainfall 0.00 in
Snow Depth Not available.
UV 10 out of 12
Pollen 6.60 out of 12
Air Quality Not available.
Flu Activity Sporadic
METAR KSTS 062053Z 16008KT 10SM FEW080 24/09 A2980 RMK AO2 SLP085 T02390089 58018

More Conditions Fewer Conditions

10-Day Weather Forecast

Almanac

Astronomy

May. 06, 2015 Rise Set
Actual Time
Civil Twilight
Nautical Twilight
Astronomical Twilight
Moon
Length of Visible Light
Length of Day
Tomorrow will be .
, % of the Moon is Illuminated

Today's Extremes

State Highs State Lows

Community

WunderPhotos

Upload Photos

1,819,015 photos uploaded!

WunderBlogs® & News

Nearby

Air Quality

  Air Quality AQ Index Pollutant
Not available.

Snow Depth

Station Depth Elevation

Earthquake Activity

City Distance Mag. Time & Date
Minimum magnitude displayed is 2.5.

Coastal Water Temperatures

Place Temperature

Stations

Nearby Weather Stations

Station Location Temp. Windchill Dew Point Humidity Wind Precip. Elev Updated Type